Overview Statistics Trail Chart Weather Telemetry Raw packets
 

This is the latest recevied weather packets stored in our database for station/object IW1CBG-3. If no packets are shown the sender has not sent any weather packets the latest 10 day(s).

<< 16 17 18 19 20 21 22 >>
Time Temp. Humidity Pressure Rain* Wind** Luminosity Snow
1788425777 23.89° C 66% 1030.2 hPa 0 mm - - -
1788425177 24.44° C 66% 1030 hPa 0 mm - - -
1788424577 23.89° C 70% 1030.4 hPa 0 mm - - -
1788423977 22.78° C 71% 1030.8 hPa 0 mm - - -
1788423377 22.78° C 71% 1030.6 hPa 0 mm - - -
1788422781 21.11° C 74% 1030.8 hPa 0 mm - - -
1788422177 20° C 76% 1031.5 hPa 0 mm - - -
1788421577 19.44° C 77% 1031.1 hPa 0 mm - - -
1788420978 19.44° C 78% 1031.6 hPa 0 mm - - -
1788420378 18.33° C 81% 1031.7 hPa 0 mm - - -
1788419777 17.78° C 83% 1032 hPa 0 mm - - -
1788419177 17.22° C 85% 1032 hPa 0 mm - - -
1788418578 16.67° C 86% 1032.3 hPa 0 mm - - -
1788417976 16.11° C 87% 1032.5 hPa 0 mm - - -
1788417376 16.11° C 87% 1032.5 hPa 0 mm - - -
1788416777 15.56° C 89% 1032.6 hPa 0 mm - - -
1788416177 15.56° C 89% 1032.5 hPa 0 mm - - -
1788415579 15° C 90% 1032.5 hPa 0 mm - - -
1788414978 15° C 92% 1032.7 hPa 0 mm - - -
1788414377 15° C 93% 1032.3 hPa 0 mm - - -
1788413776 15° C 93% 1032.4 hPa 0 mm - - -
1788413177 15° C 94% 1032.3 hPa 0 mm - - -
1788412578 15° C 94% 1032.2 hPa 0 mm - - -
1788411978 14.44° C 95% 1032.1 hPa 0 mm - - -
1788411378 15° C 96% 1031.8 hPa 0 mm - - -

* Rain latest hour (hover to see other rain measurements)
** Current wind speed in m/s (hover to see current wind gust speed)